»·PEaware :: ASA32 KDEN-KLAS

ASA32 :: KDEN-KLAS

FLIGHT INFORMATION

Flight Status: Arrived
Operator:
Alaska Airlines
More flights by this operator :: More flights under this callsign
Pilot: Steve F. (26981)
Aircraft: BOEING 737-800
(B738)
More flights by this aircraft type
Origin: KDEN Denver Intl
United States
Destination: KLAS McCarran Intl
United States
More flights between these airports :: More routes between these airports
Route: CONNR7 WERNR ZAKRY GGAPP SITEE4
File this flight plan on PilotEdge
Remarks:
Altitude:
(Current/Filed)
38,000ft
Speed:
(Current/Filed)
430kts
Departed: 30-Aug-20 08:33 AM
Arrived: 30-Aug-20 10:04 AM
Distance/Time
Traveled:
545nm/1:31
Distance/Time
To Go:
Arrived

Flight Plot

Page will automatically refresh every two minutes.

Flight plan parsing failed; only flown route is shown


Map Options




Map Legend


Flown Route
Filed Route
Departure Airport
Arrival Airport
Navaid (VOR, NDB)
Fix

Horizontal Profiles

Position Reports

Time Latitude Longitude Heading Altitude Ground
Speed
30-Aug-20 08:10 39.863539 -104.672597 180 5439ft 0kts
30-Aug-20 08:11 39.863539 -104.672597 180 5439ft 0kts
30-Aug-20 08:12 39.863539 -104.672597 180 5439ft 0kts
30-Aug-20 08:13 39.863539 -104.672597 180 5439ft 0kts
30-Aug-20 08:14 39.863539 -104.672597 180 5439ft 0kts
30-Aug-20 08:15 39.863539 -104.672597 180 5439ft 0kts
30-Aug-20 08:16 39.863539 -104.672597 180 5439ft 0kts
30-Aug-20 08:17 39.863539 -104.672597 180 5439ft 0kts
30-Aug-20 08:18 39.863539 -104.672597 180 5439ft 0kts
30-Aug-20 08:19 39.863539 -104.672597 180 5439ft 0kts
30-Aug-20 08:20 39.863539 -104.672597 180 5439ft 0kts
30-Aug-20 08:21 39.863539 -104.672597 180 5439ft 0kts
30-Aug-20 08:22 39.863627 -104.672597 182 5439ft 2kts
30-Aug-20 08:23 39.864140 -104.672227 234 5439ft 0kts
30-Aug-20 08:24 39.864139 -104.672228 234 5439ft 0kts
30-Aug-20 08:25 39.864138 -104.672230 234 5439ft 0kts
30-Aug-20 08:26 39.864237 -104.672662 304 5439ft 6kts
30-Aug-20 08:27 39.864813 -104.677238 271 5439ft 16kts
30-Aug-20 08:28 39.864323 -104.682965 273 5439ft 15kts
30-Aug-20 08:29 39.857826 -104.683923 181 5439ft 33kts
30-Aug-20 08:30 39.849561 -104.684074 182 5439ft 26kts
30-Aug-20 08:31 39.842610 -104.684223 180 5439ft 23kts
30-Aug-20 08:32 39.840734 -104.694785 270 5439ft 105kts
30-Aug-20 08:33 39.842296 -104.755800 272 7088ft 195kts
30-Aug-20 08:34 39.842275 -104.837495 271 8539ft 266kts
30-Aug-20 08:35 39.836910 -104.939074 259 10629ft 291kts
30-Aug-20 08:36 39.814116 -105.051097 257 12264ft 353kts
30-Aug-20 08:37 39.788244 -105.177915 257 14822ft 369kts
30-Aug-20 08:38 39.761761 -105.308725 257 17417ft 379kts
30-Aug-20 08:39 39.734230 -105.443111 257 19742ft 388kts
30-Aug-20 08:40 39.705993 -105.580529 257 21775ft 401kts
30-Aug-20 08:41 39.679537 -105.724015 262 23489ft 413kts
30-Aug-20 08:42 39.659880 -105.872884 262 25030ft 423kts
30-Aug-20 08:43 39.638950 -106.024774 261 26485ft 432kts
30-Aug-20 08:44 39.617622 -106.179729 261 27846ft 439kts
30-Aug-20 08:45 39.595916 -106.337333 260 29063ft 446kts
30-Aug-20 08:46 39.573476 -106.494905 260 30603ft 442kts
30-Aug-20 08:47 39.550905 -106.648476 257 32572ft 427kts
30-Aug-20 08:48 39.510205 -106.791719 250 34257ft 418kts
30-Aug-20 08:49 39.467437 -106.928541 250 36001ft 403kts
30-Aug-20 08:50 39.425504 -107.060955 250 37479ft 392kts
30-Aug-20 08:51 39.384138 -107.190762 251 38389ft 390kts
30-Aug-20 08:52 39.340186 -107.319602 249 38439ft 391kts
30-Aug-20 08:53 39.295402 -107.447974 249 38435ft 392kts
30-Aug-20 08:54 39.250432 -107.576047 249 38378ft 391kts
30-Aug-20 08:55 39.205998 -107.704101 249 38321ft 391kts
30-Aug-20 08:56 39.160638 -107.833737 249 38221ft 399kts
30-Aug-20 08:57 39.115284 -107.962216 249 38165ft 392kts
30-Aug-20 08:58 39.070031 -108.089925 249 38133ft 390kts
30-Aug-20 08:59 39.024994 -108.216541 248 38116ft 389kts
30-Aug-20 09:00 38.979789 -108.343052 248 38105ft 389kts
30-Aug-20 09:01 38.934563 -108.469088 248 38100ft 389kts
30-Aug-20 09:02 38.889062 -108.595349 248 38096ft 389kts
30-Aug-20 09:03 38.843492 -108.721263 248 38095ft 389kts
30-Aug-20 09:04 38.797811 -108.846953 248 38091ft 389kts
30-Aug-20 09:05 38.752011 -108.972406 248 38098ft 389kts
30-Aug-20 09:06 38.706083 -109.097742 248 38094ft 389kts
30-Aug-20 09:07 38.660114 -109.222636 248 38085ft 388kts
30-Aug-20 09:08 38.613966 -109.347496 248 38074ft 387kts
30-Aug-20 09:09 38.567872 -109.471694 248 38065ft 386kts
30-Aug-20 09:10 38.521888 -109.595093 248 38059ft 386kts
30-Aug-20 09:11 38.475560 -109.718901 247 38061ft 385kts
30-Aug-20 09:12 38.429311 -109.841990 247 38069ft 383kts
30-Aug-20 09:13 38.383216 -109.964174 247 38074ft 383kts
30-Aug-20 09:14 38.336794 -110.086737 247 38081ft 383kts
30-Aug-20 09:15 38.290423 -110.208671 247 38083ft 383kts
30-Aug-20 09:16 38.243789 -110.330809 247 38082ft 383kts
30-Aug-20 09:17 38.197047 -110.452741 247 38080ft 384kts
30-Aug-20 09:18 38.150117 -110.574684 247 38079ft 384kts
30-Aug-20 09:19 38.102993 -110.696636 247 38080ft 386kts
30-Aug-20 09:20 38.055608 -110.818783 247 38086ft 385kts
30-Aug-20 09:21 38.007878 -110.941330 247 38090ft 387kts
30-Aug-20 09:22 37.960398 -111.062756 246 38096ft 383kts
30-Aug-20 09:24 37.912891 -111.183786 246 38148ft 384kts
30-Aug-20 09:25 37.865072 -111.305129 246 38185ft 384kts
30-Aug-20 09:26 37.817221 -111.426089 246 38214ft 384kts
30-Aug-20 09:27 37.769306 -111.546738 246 38219ft 384kts
30-Aug-20 09:28 37.721362 -111.666988 246 38240ft 384kts
30-Aug-20 09:29 37.673153 -111.787755 246 38266ft 383kts
30-Aug-20 09:30 37.625125 -111.907689 245 38288ft 383kts
30-Aug-20 09:31 37.576590 -112.027688 245 38302ft 383kts
30-Aug-20 09:32 37.527756 -112.147414 244 38301ft 385kts
30-Aug-20 09:33 37.472279 -112.263204 242 38284ft 386kts
30-Aug-20 09:34 37.416279 -112.378642 242 38259ft 387kts
30-Aug-20 09:35 37.360272 -112.494194 242 38234ft 388kts
30-Aug-20 09:36 37.304560 -112.610140 242 38216ft 388kts
30-Aug-20 09:37 37.248275 -112.726542 241 38207ft 388kts
30-Aug-20 09:38 37.192068 -112.842216 241 38201ft 389kts
30-Aug-20 09:39 37.134986 -112.959208 241 36602ft 395kts
30-Aug-20 09:39 37.086526 -113.058160 241 34426ft 403kts
30-Aug-20 09:41 37.015957 -113.201927 240 32071ft 422kts
30-Aug-20 09:42 36.953902 -113.327772 240 29909ft 432kts
30-Aug-20 09:42 36.899925 -113.436774 239 28085ft 449kts
30-Aug-20 09:43 36.833384 -113.570688 239 25882ft 457kts
30-Aug-20 09:45 36.756841 -113.724020 239 23241ft 431kts
30-Aug-20 09:45 36.705151 -113.827763 239 21241ft 416kts
30-Aug-20 09:46 36.644929 -113.947420 238 18928ft 399kts
30-Aug-20 09:48 36.577187 -114.081437 238 16239ft 384kts
30-Aug-20 09:48 36.530142 -114.174056 238 14322ft 376kts
30-Aug-20 09:49 36.475649 -114.280539 237 12893ft 347kts
30-Aug-20 09:50 36.425925 -114.377211 237 12052ft 315kts
30-Aug-20 09:51 36.378174 -114.460576 222 11904ft 290kts
30-Aug-20 09:52 36.312353 -114.519703 215 10713ft 290kts
30-Aug-20 09:53 36.246699 -114.576963 215 9512ft 287kts
30-Aug-20 09:54 36.181618 -114.633499 214 8415ft 279kts
30-Aug-20 09:55 36.120940 -114.686107 214 7982ft 248kts
30-Aug-20 09:56 36.075482 -114.743838 257 7610ft 245kts
30-Aug-20 09:57 36.073398 -114.826854 269 6688ft 233kts
30-Aug-20 09:58 36.073826 -114.905231 269 5623ft 220kts
30-Aug-20 09:59 36.073784 -114.977574 268 4511ft 197kts
30-Aug-20 10:00 36.073732 -115.038604 268 3562ft 164kts
30-Aug-20 10:01 36.073769 -115.095097 267 2710ft 166kts
30-Aug-20 10:02 36.073635 -115.144654 270 2189ft 63kts
30-Aug-20 10:03 36.075440 -115.151331 333 2189ft 0kts
30-Aug-20 10:04 36.075442 -115.151332 333 2189ft 0kts
30-Aug-20 10:05 36.077805 -115.150679 93 2189ft 22kts
30-Aug-20 10:06 36.079843 -115.148095 18 2189ft 12kts
30-Aug-20 10:07 36.080249 -115.147394 65 2189ft 0kts
30-Aug-20 10:08 36.080249 -115.147394 65 2189ft 0kts

Navigation Log

Ident Type
Flight plan parsing failed, navigation log unavailable